createdAt,value
2023-01-30T00:01:12.807Z,7.70
2023-01-30T00:04:20.963Z,6.50
2023-01-30T00:06:54.229Z,6.80
2023-01-30T00:09:22.429Z,6.30
2023-01-30T00:11:50.315Z,7.60
2023-01-30T00:14:18.207Z,7.30
2023-01-30T00:16:46.172Z,7.60
2023-01-30T00:19:14.142Z,7.00
2023-01-30T00:21:41.977Z,7.90
2023-01-30T00:24:10.132Z,7.20
2023-01-30T00:26:38.278Z,7.50
2023-01-30T00:29:06.665Z,7.80
2023-01-30T00:31:34.634Z,8.00
2023-01-30T00:34:02.931Z,8.30
2023-01-30T00:36:30.826Z,8.10
2023-01-30T00:38:59.857Z,8.20
2023-01-30T00:41:47.816Z,7.80
2023-01-30T00:44:26.871Z,8.50
2023-01-30T00:47:06.963Z,7.30
2023-01-30T00:49:36.039Z,7.70
2023-01-30T00:52:04.733Z,7.60
2023-01-30T00:54:32.645Z,8.00
2023-01-30T00:57:00.728Z,8.00
2023-01-30T00:59:29.269Z,7.30
2023-01-30T01:01:57.210Z,7.00
2023-01-30T01:04:25.315Z,8.10
2023-01-30T01:06:53.240Z,7.50
2023-01-30T01:09:21.221Z,7.70
2023-01-30T01:11:50.156Z,7.90
2023-01-30T01:14:18.085Z,8.40
2023-01-30T01:16:46.056Z,9.00
2023-01-30T01:19:14.062Z,8.00
2023-01-30T01:21:41.935Z,8.50
2023-01-30T01:24:13.489Z,8.40
2023-01-30T01:26:41.976Z,7.90
2023-01-30T01:29:14.594Z,8.10
2023-01-30T01:31:44.156Z,7.70
2023-01-30T01:34:12.814Z,6.90
2023-01-30T01:36:56.076Z,7.60
2023-01-30T01:39:24.077Z,7.90
2023-01-30T01:41:52.220Z,7.40
2023-01-30T01:44:20.012Z,7.20
2023-01-30T01:47:01.341Z,7.70
2023-01-30T01:49:33.686Z,7.90
2023-01-30T01:52:11.473Z,8.10
2023-01-30T01:54:47.287Z,7.40
2023-01-30T01:57:20.833Z,7.40
2023-01-30T01:59:53.642Z,7.30
2023-01-30T02:02:22.107Z,7.10
2023-01-30T02:05:06.533Z,8.00
2023-01-30T02:08:00.840Z,8.30
2023-01-30T02:11:02.546Z,14.80
2023-01-30T02:13:31.384Z,11.60
2023-01-30T02:16:01.930Z,16.70
2023-01-30T02:18:34.568Z,9.30
2023-01-30T02:21:35.279Z,7.80
2023-01-30T02:24:33.271Z,7.50
2023-01-30T02:27:33.929Z,8.30
2023-01-30T02:30:23.786Z,6.70
2023-01-30T02:33:13.092Z,8.40
2023-01-30T02:36:06.148Z,11.50
2023-01-30T02:38:47.734Z,9.90
2023-01-30T02:41:42.449Z,7.30
2023-01-30T02:44:36.072Z,7.50
2023-01-30T02:47:19.433Z,7.80
2023-01-30T02:49:53.927Z,6.50
2023-01-30T02:52:23.153Z,7.40
2023-01-30T02:54:51.391Z,7.30
2023-01-30T02:57:23.254Z,6.80
2023-01-30T03:00:01.712Z,7.00
2023-01-30T03:03:07.006Z,7.10
2023-01-30T03:05:56.122Z,7.60
2023-01-30T03:08:35.117Z,7.60
2023-01-30T03:11:06.828Z,7.50
2023-01-30T03:13:52.937Z,8.80
2023-01-30T03:16:26.601Z,12.10
2023-01-30T03:18:55.600Z,21.00
2023-01-30T03:21:23.486Z,11.10
2023-01-30T03:23:53.016Z,8.10
2023-01-30T03:26:26.132Z,7.80
2023-01-30T03:28:54.374Z,7.90
2023-01-30T03:31:22.459Z,8.50
2023-01-30T03:33:50.540Z,7.60
2023-01-30T03:36:18.813Z,7.40
2023-01-30T03:38:46.791Z,7.20
2023-01-30T03:41:14.756Z,7.50
2023-01-30T03:43:42.672Z,10.00
2023-01-30T03:46:10.837Z,9.50
2023-01-30T03:48:39.704Z,7.50
2023-01-30T03:51:08.351Z,7.30
2023-01-30T03:53:36.271Z,6.40
2023-01-30T03:56:04.649Z,6.60
2023-01-30T03:58:33.450Z,7.00
2023-01-30T04:01:10.555Z,7.40
2023-01-30T04:03:38.621Z,7.10
2023-01-30T04:06:06.816Z,7.10
2023-01-30T04:08:34.925Z,7.30
2023-01-30T04:11:04.413Z,6.90
2023-01-30T04:13:32.416Z,7.40
2023-01-30T04:16:22.220Z,8.00
2023-01-30T04:19:06.864Z,7.50
2023-01-30T04:21:34.986Z,7.30
2023-01-30T04:24:02.959Z,7.60
2023-01-30T04:26:30.910Z,7.60
2023-01-30T04:28:59.132Z,7.60
2023-01-30T04:31:27.998Z,7.70
2023-01-30T04:34:00.016Z,7.40
2023-01-30T04:36:29.287Z,7.70
2023-01-30T04:38:58.248Z,7.50
2023-01-30T04:41:26.378Z,6.90
2023-01-30T04:43:57.999Z,7.50
2023-01-30T04:46:34.608Z,7.10
2023-01-30T04:49:02.453Z,7.10
2023-01-30T04:51:30.727Z,8.10
2023-01-30T04:53:59.218Z,7.70
2023-01-30T04:56:27.351Z,7.10
2023-01-30T04:58:55.296Z,7.20
2023-01-30T05:01:30.633Z,7.60
2023-01-30T05:03:59.586Z,7.20
2023-01-30T05:06:31.213Z,7.30
2023-01-30T05:08:59.657Z,8.30
2023-01-30T05:11:29.400Z,6.90
2023-01-30T05:13:58.668Z,7.00
2023-01-30T05:16:27.531Z,7.30
2023-01-30T05:18:55.567Z,7.40
2023-01-30T05:21:29.784Z,7.40
2023-01-30T05:23:58.361Z,7.10
2023-01-30T05:26:26.948Z,7.50
2023-01-30T05:28:57.345Z,7.50
2023-01-30T05:31:25.957Z,7.70
2023-01-30T05:33:58.400Z,6.70
2023-01-30T05:36:26.586Z,7.60
2023-01-30T05:38:54.522Z,7.20
2023-01-30T05:41:22.557Z,7.70
2023-01-30T05:43:51.326Z,8.20
2023-01-30T05:46:20.076Z,8.70
2023-01-30T05:48:48.343Z,6.90
2023-01-30T05:51:23.296Z,8.80
2023-01-30T05:53:51.570Z,7.40
2023-01-30T05:56:20.137Z,7.40
2023-01-30T05:58:53.733Z,8.20
2023-01-30T06:01:23.276Z,8.10
2023-01-30T06:03:52.980Z,7.50
2023-01-30T06:06:22.157Z,7.60
2023-01-30T06:08:55.650Z,8.00
2023-01-30T06:11:28.735Z,7.20
2023-01-30T06:13:57.592Z,7.40
2023-01-30T06:16:27.435Z,7.30
2023-01-30T06:18:55.973Z,8.40
2023-01-30T06:21:57.963Z,6.80
2023-01-30T06:24:26.604Z,7.20
2023-01-30T06:26:54.700Z,7.70
2023-01-30T06:29:23.635Z,8.30
2023-01-30T06:31:51.579Z,7.20
2023-01-30T06:34:20.528Z,8.00
2023-01-30T06:37:15.821Z,7.70
2023-01-30T06:39:43.756Z,7.80
2023-01-30T06:45:26.986Z,7.50
2023-01-30T06:47:56.464Z,7.60
2023-01-30T06:50:32.130Z,9.60
2023-01-30T06:53:09.006Z,9.60
2023-01-30T06:55:37.134Z,9.60
2023-01-30T06:58:11.802Z,10.60
2023-01-30T07:00:42.535Z,10.30
2023-01-30T07:07:37.776Z,8.60
2023-01-30T07:14:32.051Z,7.90
2023-01-30T07:18:43.496Z,6.60
2023-01-30T07:22:08.707Z,6.70
2023-01-30T07:32:39.813Z,6.70
2023-01-30T09:08:12.394Z,10.10
2023-01-30T09:35:32.412Z,6.50
2023-01-30T09:42:29.250Z,6.50
2023-01-30T09:46:01.272Z,6.40
2023-01-30T09:49:34.591Z,6.80
2023-01-30T09:53:14.602Z,7.00
2023-01-30T09:56:50.274Z,6.90
2023-01-30T10:00:41.578Z,6.80
2023-01-30T10:04:15.730Z,5.90
2023-01-30T10:08:03.907Z,5.70
2023-01-30T10:11:28.253Z,6.10
2023-01-30T10:15:29.477Z,6.10
2023-01-30T10:19:33.871Z,6.20
2023-01-30T10:22:54.543Z,6.40
2023-01-30T10:25:41.951Z,5.50
2023-01-30T10:28:32.082Z,6.00
2023-01-30T10:31:30.949Z,7.50
2023-01-30T10:34:09.503Z,7.60
2023-01-30T10:44:23.149Z,7.60
2023-01-30T10:47:47.534Z,7.60
2023-01-30T10:51:14.805Z,8.20
2023-01-30T10:53:57.997Z,7.00
2023-01-30T10:57:08.034Z,7.00
2023-01-30T11:03:44.938Z,7.00
2023-01-30T11:07:46.247Z,8.10
2023-01-30T11:11:04.180Z,7.50
2023-01-30T11:14:22.269Z,7.90
2023-01-30T11:19:18.330Z,7.70
2023-01-30T11:29:50.171Z,8.70
2023-01-30T11:37:53.441Z,8.10
2023-01-30T11:40:57.843Z,7.70
2023-01-30T11:44:43.858Z,7.80
2023-01-30T11:48:33.075Z,8.60
2023-01-30T11:55:29.472Z,7.20
2023-01-30T11:58:39.694Z,8.50
2023-01-30T12:02:11.966Z,8.30
2023-01-30T12:04:45.541Z,7.50
2023-01-30T12:07:32.661Z,8.20
2023-01-30T12:10:51.108Z,7.60
2023-01-30T12:27:16.205Z,8.30
2023-01-30T12:30:21.981Z,9.00
2023-01-30T12:34:02.883Z,7.90
2023-01-30T12:37:22.368Z,8.30
2023-01-30T12:41:09.468Z,7.90
2023-01-30T12:44:19.973Z,8.70
2023-01-30T12:47:42.436Z,7.90
2023-01-30T12:50:59.969Z,9.00
2023-01-30T12:54:23.423Z,8.40
2023-01-30T12:57:22.368Z,7.40
2023-01-30T13:00:31.618Z,8.40
2023-01-30T13:11:12.019Z,9.80
2023-01-30T13:14:26.129Z,10.10
2023-01-30T13:17:33.836Z,9.20
2023-01-30T13:21:09.045Z,8.80
2023-01-30T13:24:11.930Z,10.20
2023-01-30T13:26:56.587Z,10.40
2023-01-30T13:29:56.767Z,10.50
2023-01-30T13:33:15.055Z,10.10
2023-01-30T13:35:48.844Z,9.20
2023-01-30T13:38:26.560Z,10.60
2023-01-30T13:41:04.177Z,9.90
2023-01-30T13:43:40.862Z,10.20
2023-01-30T13:46:59.567Z,9.80
2023-01-30T13:52:26.245Z,9.10
2023-01-30T13:54:41.605Z,11.10
2023-01-30T14:07:11.344Z,10.30
2023-01-30T14:56:21.035Z,11.10
2023-01-30T14:59:59.773Z,12.70
2023-01-30T15:07:02.689Z,11.30
2023-01-30T15:10:17.215Z,12.60
2023-01-30T15:14:23.663Z,12.20
2023-01-30T15:21:08.723Z,12.00
2023-01-30T15:24:38.570Z,12.70
2023-01-30T15:28:01.557Z,11.20
2023-01-30T15:31:36.690Z,10.50
2023-01-30T15:35:07.591Z,11.80
2023-01-30T15:38:38.603Z,10.90
2023-01-30T15:42:03.591Z,11.10
2023-01-30T15:45:16.653Z,12.60
2023-01-30T15:48:45.584Z,11.10
2023-01-30T15:52:15.813Z,11.10
2023-01-30T15:59:26.702Z,10.40
2023-01-30T16:06:22.618Z,11.60
2023-01-30T16:10:07.317Z,11.50
2023-01-30T16:13:24.566Z,10.60
2023-01-30T16:16:42.609Z,9.90
2023-01-30T16:24:07.610Z,16.10
2023-01-30T16:27:49.530Z,16.70
2023-01-30T16:31:15.653Z,25.70
2023-01-30T16:34:51.529Z,19.50
2023-01-30T16:38:14.578Z,15.60
2023-01-30T16:41:50.655Z,15.90
2023-01-30T16:45:26.571Z,15.70
2023-01-30T16:48:43.670Z,14.80
2023-01-30T16:59:51.613Z,16.60
2023-01-30T17:03:48.086Z,17.80
2023-01-30T17:07:10.506Z,17.40
2023-01-30T17:11:05.558Z,16.60
2023-01-30T17:14:47.537Z,16.00
2023-01-30T17:18:27.542Z,16.60
2023-01-30T17:21:46.685Z,15.00
2023-01-30T17:25:32.546Z,17.60
2023-01-30T17:29:01.513Z,14.20
2023-01-30T17:32:13.546Z,13.20
2023-01-30T17:35:40.604Z,14.00
2023-01-30T17:38:49.694Z,14.00
2023-01-30T17:42:08.583Z,15.00
2023-01-30T17:45:21.634Z,15.30
2023-01-30T17:48:48.309Z,13.20
2023-01-30T17:52:24.527Z,14.40
2023-01-30T17:55:35.553Z,14.00
2023-01-30T17:59:05.466Z,14.00
2023-01-30T18:02:47.729Z,13.60
2023-01-30T18:06:08.624Z,13.00
2023-01-30T18:09:35.628Z,14.40
2023-01-30T18:13:21.575Z,12.90
2023-01-30T18:16:53.107Z,11.70
2023-01-30T18:20:47.401Z,12.20
2023-01-30T18:24:03.545Z,14.00
2023-01-30T18:27:32.489Z,13.20
2023-01-30T18:30:59.652Z,12.60
2023-01-30T18:34:14.522Z,12.30
2023-01-30T18:38:02.399Z,12.30
2023-01-30T18:41:25.935Z,15.20
2023-01-30T18:45:23.617Z,14.60
2023-01-30T18:48:58.507Z,16.10
2023-01-30T18:52:27.578Z,15.00
2023-01-30T18:55:54.469Z,15.10
2023-01-30T18:59:24.601Z,15.00
2023-01-30T19:02:54.607Z,15.60
2023-01-30T19:06:11.854Z,16.30
2023-01-30T19:09:50.489Z,16.70
2023-01-30T19:13:04.610Z,18.30
2023-01-30T19:16:31.554Z,20.30
2023-01-30T19:20:02.538Z,17.60
2023-01-30T19:23:17.564Z,18.70
2023-01-30T19:26:57.716Z,17.10
2023-01-30T19:30:31.976Z,18.00
2023-01-30T19:34:23.504Z,17.10
2023-01-30T19:38:03.607Z,15.00
2023-01-30T19:41:14.496Z,14.60
2023-01-30T19:44:46.542Z,16.40
2023-01-30T19:48:19.546Z,18.80
2023-01-30T19:52:04.632Z,20.20
2023-01-30T19:54:59.499Z,21.90
2023-01-30T19:58:48.619Z,18.90
2023-01-30T20:02:30.155Z,15.90
2023-01-30T20:05:38.734Z,17.10
2023-01-30T20:09:16.355Z,17.00
2023-01-30T20:12:28.193Z,15.50
2023-01-30T20:16:06.273Z,17.00
2023-01-30T20:19:35.685Z,16.90
2023-01-30T20:22:55.638Z,17.20
2023-01-30T20:26:40.015Z,15.80
2023-01-30T20:30:33.829Z,16.10
2023-01-30T20:33:41.487Z,15.20
2023-01-30T20:37:01.514Z,15.40
2023-01-30T20:40:06.281Z,14.90
2023-01-30T20:43:25.897Z,15.30
2023-01-30T20:47:14.493Z,14.20
2023-01-30T20:50:26.826Z,13.60
2023-01-30T20:53:54.540Z,14.90
2023-01-30T20:57:03.840Z,15.00
2023-01-30T21:00:34.778Z,16.50
2023-01-30T21:03:23.389Z,19.70
2023-01-30T21:06:41.490Z,22.10
2023-01-30T21:10:20.452Z,21.60
2023-01-30T21:14:03.483Z,22.90
2023-01-30T21:17:30.558Z,20.60
2023-01-30T21:21:01.188Z,19.80
2023-01-30T21:23:44.200Z,21.60
2023-01-30T21:27:23.479Z,22.50
2023-01-30T21:31:11.748Z,21.00
2023-01-30T21:34:35.543Z,21.00
2023-01-30T21:37:55.709Z,22.10
2023-01-30T21:40:54.514Z,21.30
2023-01-30T21:44:14.542Z,16.20
2023-01-30T21:47:34.918Z,18.50
2023-01-30T21:50:59.546Z,20.80
2023-01-30T21:53:40.062Z,21.10
2023-01-30T21:56:40.078Z,20.90
2023-01-30T22:03:30.596Z,20.40
2023-01-30T22:06:55.654Z,18.10
2023-01-30T22:10:17.574Z,17.90
2023-01-30T22:14:24.518Z,18.10
2023-01-30T22:18:11.392Z,20.20
2023-01-30T22:21:40.297Z,20.90
2023-01-30T22:25:15.027Z,19.10
2023-01-30T22:28:17.712Z,21.30
2023-01-30T22:30:45.774Z,21.50
2023-01-30T22:33:14.471Z,20.10
2023-01-30T22:35:50.224Z,20.40
2023-01-30T22:38:20.103Z,20.90
2023-01-30T22:40:47.895Z,20.20
2023-01-30T22:43:16.394Z,20.20
2023-01-30T22:45:44.449Z,18.90
2023-01-30T22:48:12.333Z,17.90
2023-01-30T22:50:40.338Z,19.60
2023-01-30T22:53:08.169Z,19.70
2023-01-30T22:55:36.141Z,20.30
2023-01-30T22:58:04.140Z,20.60
2023-01-30T23:00:31.916Z,20.90
2023-01-30T23:02:59.825Z,19.00
2023-01-30T23:05:27.883Z,18.70
2023-01-30T23:07:55.892Z,17.90
2023-01-30T23:10:23.945Z,18.00
2023-01-30T23:13:01.939Z,19.10
2023-01-30T23:15:35.552Z,17.90
2023-01-30T23:18:22.313Z,17.90
2023-01-30T23:21:32.238Z,18.00
2023-01-30T23:25:09.321Z,17.10
2023-01-30T23:28:27.453Z,17.50
2023-01-30T23:32:20.556Z,16.90
2023-01-30T23:35:09.559Z,17.60
2023-01-30T23:38:51.169Z,18.60
2023-01-30T23:42:29.186Z,19.00
2023-01-30T23:45:59.516Z,21.20
2023-01-30T23:49:32.146Z,22.80
2023-01-30T23:53:02.239Z,22.90
2023-01-30T23:56:11.006Z,20.40
2023-01-30T23:59:22.720Z,19.70
